createdAt,value
2023-05-24T00:00:48.956Z,1.83
2023-05-24T00:03:18.980Z,1.45
2023-05-24T00:05:46.861Z,2.30
2023-05-24T00:08:16.047Z,2.83
2023-05-24T00:10:43.272Z,2.90
2023-05-24T00:13:10.480Z,2.42
2023-05-24T00:15:37.598Z,2.30
2023-05-24T00:18:04.837Z,1.98
2023-05-24T00:20:31.871Z,1.33
2023-05-24T00:22:58.684Z,1.55
2023-05-24T00:25:25.606Z,1.23
2023-05-24T00:27:52.422Z,0.82
2023-05-24T00:30:19.317Z,1.00
2023-05-24T00:32:48.059Z,1.50
2023-05-24T00:35:14.873Z,1.00
2023-05-24T00:37:45.250Z,1.58
2023-05-24T00:40:13.222Z,0.85
2023-05-24T00:42:40.583Z,0.80
2023-05-24T00:45:08.427Z,0.65
2023-05-24T00:47:36.234Z,1.00
2023-05-24T00:50:03.949Z,1.27
2023-05-24T00:52:49.520Z,1.30
2023-05-24T00:55:16.475Z,2.20
2023-05-24T00:57:44.309Z,3.08
2023-05-24T01:00:11.670Z,1.48
2023-05-24T01:02:38.766Z,2.10
2023-05-24T01:05:06.274Z,1.88
2023-05-24T01:07:45.238Z,1.77
2023-05-24T01:10:21.254Z,1.75
2023-05-24T01:13:04.497Z,1.00
2023-05-24T01:15:40.468Z,1.08
2023-05-24T01:18:11.702Z,0.77
2023-05-24T01:21:12.348Z,1.13
2023-05-24T01:24:04.728Z,0.98
2023-05-24T01:26:46.107Z,1.30
2023-05-24T01:29:14.932Z,1.27
2023-05-24T01:31:42.809Z,1.42
2023-05-24T01:34:12.206Z,0.90
2023-05-24T01:36:39.856Z,1.20
2023-05-24T01:39:06.979Z,1.30
2023-05-24T01:41:33.757Z,1.50
2023-05-24T01:44:31.653Z,1.45
2023-05-24T01:47:27.537Z,1.58
2023-05-24T01:49:57.307Z,1.52
2023-05-24T01:52:29.125Z,1.90
2023-05-24T01:54:57.205Z,2.10
2023-05-24T01:57:26.912Z,1.83
2023-05-24T01:59:54.858Z,2.40
2023-05-24T02:02:21.957Z,2.22
2023-05-24T02:04:49.423Z,1.85
2023-05-24T02:07:17.562Z,1.83
2023-05-24T02:09:44.491Z,2.15
2023-05-24T02:12:13.363Z,2.17
2023-05-24T02:14:42.782Z,2.10
2023-05-24T02:17:10.022Z,1.95
2023-05-24T02:19:37.276Z,1.27
2023-05-24T02:22:07.392Z,1.17
2023-05-24T02:24:34.416Z,1.52
2023-05-24T02:27:01.323Z,1.83
2023-05-24T02:29:28.161Z,1.83
2023-05-24T02:31:56.792Z,1.67
2023-05-24T02:34:42.922Z,1.88
2023-05-24T02:37:09.944Z,1.98
2023-05-24T02:39:36.765Z,2.00
2023-05-24T02:42:05.994Z,1.80
2023-05-24T02:44:32.913Z,1.40
2023-05-24T02:46:59.717Z,1.00
2023-05-24T02:49:26.574Z,1.58
2023-05-24T02:51:53.417Z,1.45
2023-05-24T02:54:20.359Z,1.45
2023-05-24T02:56:47.941Z,1.48
2023-05-24T02:59:17.660Z,1.05
2023-05-24T03:01:44.813Z,1.67
2023-05-24T03:04:30.545Z,1.55
2023-05-24T03:06:57.461Z,1.30
2023-05-24T03:09:24.503Z,1.90
2023-05-24T03:11:52.954Z,1.48
2023-05-24T03:14:22.729Z,1.42
2023-05-24T03:16:51.333Z,1.33
2023-05-24T03:19:18.218Z,1.60
2023-05-24T03:21:45.258Z,1.65
2023-05-24T03:24:13.339Z,1.58
2023-05-24T03:26:41.179Z,1.90
2023-05-24T03:29:09.000Z,2.08
2023-05-24T03:31:39.460Z,2.13
2023-05-24T03:34:06.554Z,1.80
2023-05-24T03:36:35.207Z,1.75
2023-05-24T03:39:04.559Z,2.55
2023-05-24T03:41:37.240Z,2.30
2023-05-24T03:44:04.246Z,2.58
2023-05-24T03:46:31.376Z,2.15
2023-05-24T03:49:17.040Z,2.20
2023-05-24T03:51:44.226Z,2.00
2023-05-24T03:54:11.197Z,2.40
2023-05-24T03:56:38.402Z,2.28
2023-05-24T03:59:05.250Z,2.40
2023-05-24T04:01:34.693Z,2.28
2023-05-24T04:04:02.821Z,2.20
2023-05-24T04:06:30.181Z,2.42
2023-05-24T04:11:45.744Z,2.10
2023-05-24T04:14:31.399Z,2.22
2023-05-24T04:16:58.788Z,2.50
2023-05-24T04:19:25.873Z,2.03
2023-05-24T04:21:52.726Z,2.40
2023-05-24T04:24:19.480Z,3.10
2023-05-24T04:26:47.834Z,2.70
2023-05-24T04:29:14.722Z,2.92
2023-05-24T04:31:44.821Z,2.92
2023-05-24T04:34:14.417Z,3.17
2023-05-24T04:36:41.583Z,2.75
2023-05-24T04:39:10.072Z,2.25
2023-05-24T04:41:37.370Z,2.28
2023-05-24T04:44:04.437Z,3.10
2023-05-24T04:46:31.682Z,3.00
2023-05-24T04:48:58.627Z,2.70
2023-05-24T04:51:25.621Z,3.53
2023-05-24T04:53:52.767Z,3.10
2023-05-24T04:56:19.694Z,3.08
2023-05-24T04:58:46.602Z,3.70
2023-05-24T05:01:13.520Z,2.60
2023-05-24T05:03:41.226Z,3.22
2023-05-24T05:06:08.100Z,2.80
2023-05-24T05:08:35.014Z,3.60
2023-05-24T05:11:02.901Z,3.80
2023-05-24T05:13:29.857Z,2.97
2023-05-24T05:15:56.674Z,3.55
2023-05-24T05:18:23.549Z,3.63
2023-05-24T05:20:50.510Z,3.55
2023-05-24T05:23:17.421Z,3.25
2023-05-24T05:25:44.358Z,3.03
2023-05-24T05:28:11.238Z,2.90
2023-05-24T05:30:38.152Z,3.20
2023-05-24T05:33:06.351Z,3.55
2023-05-24T05:35:33.419Z,3.42
2023-05-24T05:38:00.261Z,2.65
2023-05-24T05:40:27.069Z,3.53
2023-05-24T05:42:53.938Z,3.33
2023-05-24T05:45:21.088Z,2.63
2023-05-24T05:47:47.979Z,3.75
2023-05-24T05:50:52.518Z,2.85
2023-05-24T05:53:19.321Z,2.40
2023-05-24T05:55:46.173Z,3.38
2023-05-24T05:58:13.004Z,3.22
2023-05-24T06:00:40.971Z,3.88
2023-05-24T06:03:08.136Z,4.82
2023-05-24T06:05:34.961Z,3.50
2023-05-24T06:08:01.774Z,3.65
2023-05-24T06:10:28.570Z,4.05
2023-05-24T06:12:55.480Z,3.88
2023-05-24T06:15:23.101Z,4.00
2023-05-24T06:17:51.973Z,3.45
2023-05-24T06:20:19.557Z,3.80
2023-05-24T06:23:05.194Z,3.83
2023-05-24T06:25:33.048Z,3.75
2023-05-24T06:27:59.986Z,3.60
2023-05-24T06:30:26.824Z,3.58
2023-05-24T06:32:53.727Z,3.45
2023-05-24T06:35:20.620Z,3.33
2023-05-24T06:37:47.397Z,3.33
2023-05-24T06:40:14.857Z,3.08
2023-05-24T06:42:41.769Z,3.70
2023-05-24T06:45:09.468Z,3.35
2023-05-24T06:47:37.047Z,3.30
2023-05-24T06:50:23.285Z,3.15
2023-05-24T06:52:50.252Z,2.83
2023-05-24T06:55:17.087Z,2.80
2023-05-24T06:58:21.156Z,2.97
2023-05-24T07:00:48.848Z,3.08
2023-05-24T07:03:15.968Z,2.80
2023-05-24T07:05:42.739Z,3.55
2023-05-24T07:08:09.528Z,3.10
2023-05-24T07:10:36.412Z,3.83
2023-05-24T07:13:04.014Z,2.80
2023-05-24T07:15:30.856Z,3.50
2023-05-24T07:18:16.665Z,3.58
2023-05-24T07:20:43.799Z,3.35
2023-05-24T07:23:11.035Z,2.65
2023-05-24T07:25:37.872Z,3.58
2023-05-24T07:28:05.767Z,3.35
2023-05-24T07:30:33.092Z,3.67
2023-05-24T07:33:19.000Z,3.40
2023-05-24T07:35:51.289Z,3.05
2023-05-24T07:38:18.953Z,3.90
2023-05-24T07:40:45.942Z,2.80
2023-05-24T07:43:12.951Z,3.33
2023-05-24T07:45:42.815Z,3.22
2023-05-24T07:48:09.827Z,3.28
2023-05-24T07:50:36.760Z,3.10
2023-05-24T07:53:22.231Z,2.85
2023-05-24T07:55:49.035Z,3.22
2023-05-24T07:58:34.420Z,3.60
2023-05-24T08:01:01.737Z,3.15
2023-05-24T08:03:28.848Z,3.78
2023-05-24T08:05:55.960Z,2.67
2023-05-24T08:08:23.148Z,2.60
2023-05-24T08:11:08.493Z,2.80
2023-05-24T08:13:35.785Z,3.35
2023-05-24T08:16:02.670Z,3.58
2023-05-24T08:18:29.587Z,3.35
2023-05-24T08:20:56.490Z,2.47
2023-05-24T08:23:23.542Z,2.50
2023-05-24T08:25:50.634Z,2.35
2023-05-24T08:28:17.574Z,3.10
2023-05-24T08:30:44.803Z,1.73
2023-05-24T08:33:11.709Z,2.63
2023-05-24T08:35:57.114Z,2.22
2023-05-24T08:38:23.938Z,1.80
2023-05-24T08:40:50.890Z,1.65
2023-05-24T08:43:19.093Z,1.83
2023-05-24T08:45:46.333Z,1.85
2023-05-24T08:48:15.382Z,1.52
2023-05-24T08:50:43.030Z,1.08
2023-05-24T08:53:28.686Z,1.45
2023-05-24T08:55:56.256Z,1.30
2023-05-24T08:58:23.413Z,1.50
2023-05-24T09:00:50.330Z,1.88
2023-05-24T09:03:18.503Z,1.20
2023-05-24T09:05:46.197Z,1.20
2023-05-24T09:08:18.064Z,1.00
2023-05-24T09:10:54.636Z,0.90
2023-05-24T09:13:25.155Z,0.55
2023-05-24T09:15:52.730Z,0.73
2023-05-24T09:18:19.735Z,0.70
2023-05-24T09:20:46.888Z,0.93
2023-05-24T09:23:14.720Z,0.50
2023-05-24T09:25:46.210Z,0.70
2023-05-24T09:28:15.024Z,0.70
2023-05-24T09:31:06.214Z,0.90
2023-05-24T09:33:52.392Z,1.00
2023-05-24T09:36:19.447Z,0.75
2023-05-24T09:38:46.251Z,0.90
2023-05-24T09:41:31.595Z,1.08
2023-05-24T09:43:58.444Z,0.95
2023-05-24T09:46:25.445Z,0.95
2023-05-24T09:48:59.330Z,1.10
2023-05-24T09:51:27.136Z,0.98
2023-05-24T09:53:58.097Z,1.13
2023-05-24T09:56:26.446Z,1.10
2023-05-24T09:58:55.021Z,0.80
2023-05-24T10:01:40.666Z,1.05
2023-05-24T10:04:09.750Z,0.57
2023-05-24T10:06:38.509Z,0.82
2023-05-24T10:09:10.127Z,0.82
2023-05-24T10:11:37.491Z,0.75
2023-05-24T10:14:09.794Z,1.20
2023-05-24T10:16:39.878Z,0.63
2023-05-24T10:19:07.419Z,0.90
2023-05-24T10:21:37.807Z,0.65
2023-05-24T10:24:08.985Z,0.90
2023-05-24T10:26:38.832Z,0.80
2023-05-24T10:29:10.750Z,0.60
2023-05-24T10:31:41.437Z,0.95
2023-05-24T10:34:09.931Z,0.45
2023-05-24T10:36:40.447Z,0.70
2023-05-24T10:39:11.274Z,0.70
2023-05-24T10:41:42.207Z,0.60
2023-05-24T10:44:17.439Z,0.63
2023-05-24T10:47:18.098Z,0.73
2023-05-24T10:50:17.214Z,0.90
2023-05-24T10:52:44.104Z,0.63
2023-05-24T10:55:12.159Z,0.65
2023-05-24T10:57:40.161Z,0.82
2023-05-24T11:00:35.379Z,0.63
2023-05-24T11:05:54.944Z,0.35
2023-05-24T11:08:31.814Z,0.50
2023-05-24T11:11:25.694Z,0.55
2023-05-24T11:14:00.363Z,0.40
2023-05-24T11:16:48.803Z,0.50
2023-05-24T11:19:22.126Z,0.65
2023-05-24T11:21:51.017Z,0.40
2023-05-24T11:24:19.830Z,0.75
2023-05-24T11:26:47.957Z,0.60
2023-05-24T11:29:21.254Z,0.73
2023-05-24T11:32:04.272Z,0.50
2023-05-24T11:34:32.371Z,0.60
2023-05-24T11:37:00.420Z,1.77
2023-05-24T11:39:31.644Z,1.30
2023-05-24T11:41:59.409Z,1.83
2023-05-24T11:44:44.860Z,3.70
2023-05-24T11:47:13.613Z,3.22
2023-05-24T11:49:41.115Z,1.02
2023-05-24T11:52:08.723Z,2.90
2023-05-24T11:54:37.392Z,3.42
2023-05-24T11:57:40.209Z,3.20
2023-05-24T12:00:26.653Z,2.92
2023-05-24T12:02:57.501Z,3.17
2023-05-24T12:05:24.668Z,3.08
2023-05-24T12:08:06.090Z,3.33
2023-05-24T12:10:34.868Z,3.15
2023-05-24T12:13:03.789Z,3.30
2023-05-24T12:15:31.254Z,2.97
2023-05-24T12:20:43.331Z,2.92
2023-05-24T12:23:10.213Z,2.63
2023-05-24T12:25:37.702Z,3.10
2023-05-24T12:28:05.876Z,2.72
2023-05-24T12:33:19.738Z,2.58
2023-05-24T12:35:48.122Z,2.40
2023-05-24T12:38:15.406Z,2.58
2023-05-24T12:40:44.607Z,2.70
2023-05-24T12:43:30.838Z,2.08
2023-05-24T12:45:57.730Z,2.53
2023-05-24T12:48:24.592Z,2.67
2023-05-24T12:50:51.485Z,2.67
2023-05-24T12:53:20.081Z,2.58
2023-05-24T12:55:46.905Z,2.35
2023-05-24T12:58:16.399Z,2.63
2023-05-24T13:00:45.445Z,3.05
2023-05-24T13:03:12.482Z,2.40
2023-05-24T13:05:59.519Z,2.90
2023-05-24T13:08:28.742Z,2.50
2023-05-24T13:10:55.713Z,2.70
2023-05-24T13:13:24.344Z,2.67
2023-05-24T13:16:10.793Z,2.58
2023-05-24T13:18:38.382Z,2.42
2023-05-24T13:21:05.979Z,2.00
2023-05-24T13:23:33.977Z,2.92
2023-05-24T13:26:01.736Z,2.95
2023-05-24T13:28:31.446Z,3.40
2023-05-24T13:30:58.287Z,3.30
2023-05-24T13:33:25.524Z,3.17
2023-05-24T13:35:55.265Z,3.55
2023-05-24T13:38:22.357Z,3.20
2023-05-24T13:40:49.811Z,2.65
2023-05-24T13:43:16.730Z,3.13
2023-05-24T13:45:44.361Z,3.00
2023-05-24T13:48:11.920Z,2.63
2023-05-24T13:50:39.100Z,2.75
2023-05-24T13:53:07.964Z,2.63
2023-05-24T13:55:37.794Z,3.25
2023-05-24T13:58:05.211Z,2.03
2023-05-24T14:00:33.245Z,2.03
2023-05-24T14:03:00.285Z,2.42
2023-05-24T14:05:29.201Z,2.10
2023-05-24T14:08:04.191Z,2.08
2023-05-24T14:10:31.030Z,2.97
2023-05-24T14:13:16.141Z,2.67
2023-05-24T14:15:46.821Z,3.38
2023-05-24T14:18:14.413Z,2.70
2023-05-24T14:20:59.710Z,3.05
2023-05-24T14:23:27.543Z,1.90
2023-05-24T14:25:54.438Z,1.83
2023-05-24T14:28:21.728Z,1.83
2023-05-24T14:30:48.539Z,2.08
2023-05-24T14:33:15.543Z,2.67
2023-05-24T14:35:42.685Z,3.30
2023-05-24T14:38:11.495Z,3.47
2023-05-24T14:40:40.054Z,3.17
2023-05-24T14:43:10.431Z,2.75
2023-05-24T14:45:42.029Z,4.13
2023-05-24T14:48:13.237Z,3.35
2023-05-24T14:50:41.210Z,3.60
2023-05-24T14:53:14.886Z,3.42
2023-05-24T14:55:43.309Z,3.90
2023-05-24T14:58:12.095Z,2.83
2023-05-24T15:00:40.280Z,3.15
2023-05-24T15:03:08.189Z,3.53
2023-05-24T15:05:54.333Z,2.97
2023-05-24T15:08:21.259Z,3.60
2023-05-24T15:10:48.059Z,3.78
2023-05-24T15:13:15.061Z,4.50
2023-05-24T15:15:42.303Z,2.85
2023-05-24T15:18:09.604Z,3.63
2023-05-24T15:20:37.128Z,3.08
2023-05-24T15:23:04.291Z,2.78
2023-05-24T15:25:31.124Z,3.17
2023-05-24T15:27:58.194Z,3.83
2023-05-24T15:30:25.090Z,2.95
2023-05-24T15:32:52.029Z,3.17
2023-05-24T15:35:18.849Z,3.67
2023-05-24T15:37:46.170Z,3.20
2023-05-24T15:40:13.683Z,2.65
2023-05-24T15:42:40.857Z,2.80
2023-05-24T15:45:08.325Z,3.05
2023-05-24T15:47:39.858Z,6.80
2023-05-24T15:50:08.890Z,5.43
2023-05-24T15:52:36.237Z,5.38
2023-05-24T15:55:03.608Z,3.65
2023-05-24T15:57:31.167Z,3.58
2023-05-24T15:59:57.971Z,2.22
2023-05-24T16:02:25.081Z,2.70
2023-05-24T16:04:52.013Z,2.80
2023-05-24T16:07:19.679Z,3.30
2023-05-24T16:09:47.063Z,2.92
2023-05-24T16:12:13.882Z,4.35
2023-05-24T16:14:40.981Z,3.88
2023-05-24T16:17:08.216Z,2.92
2023-05-24T16:19:54.195Z,4.45
2023-05-24T16:22:39.626Z,2.95
2023-05-24T16:25:06.693Z,3.47
2023-05-24T16:27:33.486Z,4.03
2023-05-24T16:30:00.510Z,4.63
2023-05-24T16:32:27.320Z,4.82
2023-05-24T16:34:57.187Z,5.32
2023-05-24T16:37:24.570Z,3.80
2023-05-24T16:40:10.200Z,3.17
2023-05-24T16:42:37.053Z,3.92
2023-05-24T16:45:04.233Z,3.05
2023-05-24T16:47:31.664Z,3.15
2023-05-24T16:49:58.530Z,3.83
2023-05-24T16:52:25.403Z,3.20
2023-05-24T16:54:52.181Z,4.25
2023-05-24T17:00:05.028Z,3.92
2023-05-24T17:02:31.988Z,3.33
2023-05-24T17:05:18.061Z,2.72
2023-05-24T17:10:30.591Z,3.00
2023-05-24T17:12:57.378Z,2.67
2023-05-24T17:15:24.322Z,3.00
2023-05-24T17:17:52.044Z,3.05
2023-05-24T17:20:18.944Z,3.60
2023-05-24T17:22:46.122Z,3.80
2023-05-24T17:25:12.994Z,3.55
2023-05-24T17:27:39.832Z,3.30
2023-05-24T17:30:07.567Z,3.83
2023-05-24T17:32:34.412Z,3.08
2023-05-24T17:35:01.336Z,2.38
2023-05-24T17:37:28.151Z,2.67
2023-05-24T17:39:55.071Z,3.33
2023-05-24T17:42:22.142Z,3.08
2023-05-24T17:44:49.051Z,3.28
2023-05-24T17:47:15.937Z,3.75
2023-05-24T17:49:42.739Z,2.45
2023-05-24T17:52:09.524Z,5.32
2023-05-24T17:54:36.653Z,4.40
2023-05-24T17:57:03.992Z,3.83
2023-05-24T17:59:30.862Z,2.78
2023-05-24T18:01:57.606Z,3.85
2023-05-24T18:04:43.415Z,4.47
2023-05-24T18:07:10.512Z,2.95
2023-05-24T18:09:37.307Z,2.97
2023-05-24T18:12:04.288Z,5.70
2023-05-24T18:14:32.185Z,7.60
2023-05-24T18:16:59.235Z,6.05
2023-05-24T18:19:26.755Z,3.53
2023-05-24T18:21:53.691Z,3.70
2023-05-24T18:24:20.722Z,2.78
2023-05-24T18:26:47.611Z,2.97
2023-05-24T18:29:14.550Z,2.50
2023-05-24T18:31:41.530Z,2.65
2023-05-24T18:34:08.499Z,3.20
2023-05-24T18:36:36.726Z,3.10
2023-05-24T18:39:04.255Z,4.18
2023-05-24T18:46:59.570Z,2.88
2023-05-24T18:49:26.518Z,5.07
2023-05-24T18:51:53.368Z,3.20
2023-05-24T18:54:20.271Z,3.40
2023-05-24T18:56:47.221Z,3.63
2023-05-24T18:59:14.177Z,2.63
2023-05-24T19:01:41.664Z,3.42
2023-05-24T19:04:08.493Z,3.60
2023-05-24T19:06:36.529Z,3.25
2023-05-24T19:09:04.185Z,3.40
2023-05-24T19:11:31.122Z,3.17
2023-05-24T19:13:57.943Z,3.25
2023-05-24T19:16:24.905Z,3.13
2023-05-24T19:18:51.881Z,3.35
2023-05-24T19:21:18.793Z,3.72
2023-05-24T19:24:04.545Z,3.35
2023-05-24T19:26:31.327Z,4.03
2023-05-24T19:28:59.169Z,3.22
2023-05-24T19:31:28.006Z,3.25
2023-05-24T19:34:00.302Z,2.40
2023-05-24T19:36:29.728Z,2.60
2023-05-24T19:38:56.492Z,2.47
2023-05-24T19:41:23.441Z,3.78
2023-05-24T19:43:50.278Z,2.85
2023-05-24T19:46:17.210Z,3.28
2023-05-24T19:48:44.454Z,3.28
2023-05-24T19:51:13.315Z,4.22
2023-05-24T19:53:40.099Z,4.18
2023-05-24T19:56:07.055Z,4.28
2023-05-24T19:58:33.862Z,4.18
2023-05-24T20:01:00.924Z,4.45
2023-05-24T20:03:28.010Z,3.05
2023-05-24T20:05:55.127Z,5.07
2023-05-24T20:08:22.016Z,4.25
2023-05-24T20:10:50.684Z,4.90
2023-05-24T20:13:17.547Z,4.63
2023-05-24T20:15:44.625Z,4.95
2023-05-24T20:18:11.570Z,5.35
2023-05-24T20:20:38.522Z,6.80
2023-05-24T20:23:05.406Z,4.35
2023-05-24T20:25:50.971Z,4.45
2023-05-24T20:28:36.829Z,4.85
2023-05-24T20:31:04.136Z,5.53
2023-05-24T20:33:31.024Z,6.53
2023-05-24T20:35:58.521Z,5.65
2023-05-24T20:38:25.395Z,4.60
2023-05-24T20:40:52.458Z,5.63
2023-05-24T20:46:03.741Z,7.05
2023-05-24T20:48:30.637Z,4.65
2023-05-24T20:50:57.687Z,5.18
2023-05-24T20:53:24.535Z,7.93
2023-05-24T20:55:51.557Z,6.35
2023-05-24T20:58:18.447Z,6.85
2023-05-24T21:00:45.953Z,5.38
2023-05-24T21:03:13.109Z,6.82
2023-05-24T21:05:40.367Z,5.82
2023-05-24T21:10:51.408Z,6.53
2023-05-24T21:13:20.556Z,7.35
2023-05-24T21:15:47.675Z,6.43
2023-05-24T21:18:14.681Z,6.50
2023-05-24T21:20:41.546Z,8.23
2023-05-24T21:23:09.205Z,6.40
2023-05-24T21:25:36.284Z,9.25
2023-05-24T21:28:03.402Z,7.72
2023-05-24T21:30:30.777Z,7.00
2023-05-24T21:32:57.571Z,4.97
2023-05-24T21:35:24.420Z,7.53
2023-05-24T21:37:52.568Z,7.10
2023-05-24T21:40:38.099Z,7.55
2023-05-24T21:43:05.443Z,7.78
2023-05-24T21:45:32.313Z,6.80
2023-05-24T21:47:59.119Z,7.03
2023-05-24T21:50:26.066Z,7.13
2023-05-24T21:53:11.727Z,7.03
2023-05-24T21:55:38.565Z,7.18
2023-05-24T21:58:05.435Z,6.57
2023-05-24T22:00:32.420Z,7.22
2023-05-24T22:02:59.327Z,7.88
2023-05-24T22:05:27.943Z,5.93
2023-05-24T22:07:55.288Z,5.75
2023-05-24T22:10:22.394Z,5.90
2023-05-24T22:12:49.305Z,5.60
2023-05-24T22:15:16.258Z,6.60
2023-05-24T22:17:43.131Z,7.57
2023-05-24T22:20:10.868Z,6.68
2023-05-24T22:22:58.810Z,6.50
2023-05-24T22:25:25.663Z,5.63
2023-05-24T22:27:55.799Z,7.22
2023-05-24T22:30:23.805Z,6.80
2023-05-24T22:32:51.156Z,7.57
2023-05-24T22:35:18.149Z,8.10
2023-05-24T22:37:44.951Z,7.80
2023-05-24T22:40:12.482Z,7.28
2023-05-24T22:42:39.279Z,7.93
2023-05-24T22:45:06.854Z,7.72
2023-05-24T22:47:34.008Z,7.32
2023-05-24T22:50:02.208Z,7.22
2023-05-24T22:52:30.380Z,6.65
2023-05-24T22:54:57.300Z,7.75
2023-05-24T22:57:24.156Z,6.30
2023-05-24T23:00:11.720Z,6.38
2023-05-24T23:02:38.670Z,7.00
2023-05-24T23:05:06.072Z,7.07
2023-05-24T23:07:33.133Z,7.78
2023-05-24T23:09:59.888Z,7.30
2023-05-24T23:12:26.843Z,6.63
2023-05-24T23:14:54.186Z,7.68
2023-05-24T23:17:22.831Z,8.82
2023-05-24T23:19:50.552Z,8.57
2023-05-24T23:22:20.197Z,7.57
2023-05-24T23:24:50.192Z,6.93
2023-05-24T23:27:17.119Z,7.65
2023-05-24T23:29:44.265Z,6.22
2023-05-24T23:32:11.755Z,8.20
2023-05-24T23:34:38.665Z,5.68
2023-05-24T23:37:06.034Z,7.30
2023-05-24T23:39:33.181Z,7.78
2023-05-24T23:41:59.988Z,7.97
2023-05-24T23:44:26.838Z,7.05
2023-05-24T23:46:53.964Z,7.75
2023-05-24T23:49:20.954Z,7.65
2023-05-24T23:51:48.090Z,7.78
2023-05-24T23:54:15.807Z,7.55
2023-05-24T23:56:45.669Z,6.35
2023-05-24T23:59:12.695Z,6.88
